createdAt,value
2018-08-09T00:02:01.430Z,15.60
2018-08-09T00:04:30.545Z,15.60
2018-08-09T00:07:03.743Z,15.60
2018-08-09T00:09:34.044Z,15.60
2018-08-09T00:12:02.733Z,15.60
2018-08-09T00:14:32.827Z,15.50
2018-08-09T00:17:01.469Z,15.50
2018-08-09T00:19:30.039Z,15.50
2018-08-09T00:21:58.682Z,15.50
2018-08-09T00:24:27.258Z,15.50
2018-08-09T00:26:57.256Z,15.50
2018-08-09T00:29:25.966Z,15.50
2018-08-09T00:31:56.543Z,15.60
2018-08-09T00:34:25.766Z,15.60
2018-08-09T00:36:54.537Z,15.50
2018-08-09T00:39:25.135Z,15.50
2018-08-09T00:41:53.989Z,15.50
2018-08-09T00:44:25.163Z,15.50
2018-08-09T00:46:55.505Z,15.50
2018-08-09T00:49:26.856Z,15.50
2018-08-09T00:51:57.118Z,15.50
2018-08-09T00:54:26.414Z,15.40
2018-08-09T00:56:56.075Z,15.40
2018-08-09T00:59:25.462Z,15.40
2018-08-09T01:01:54.975Z,15.50
2018-08-09T01:04:23.755Z,15.50
2018-08-09T01:06:56.198Z,15.50
2018-08-09T01:09:25.270Z,15.50
2018-08-09T01:11:55.066Z,15.50
2018-08-09T01:14:23.954Z,15.50
2018-08-09T01:16:52.893Z,15.50
2018-08-09T01:19:21.819Z,15.50
2018-08-09T01:21:51.863Z,15.60
2018-08-09T01:24:21.700Z,15.60
2018-08-09T01:26:51.457Z,15.60
2018-08-09T01:29:20.264Z,15.60
2018-08-09T01:31:50.224Z,15.60
2018-08-09T01:34:20.467Z,15.60
2018-08-09T01:36:50.566Z,15.60
2018-08-09T01:39:20.349Z,15.60
2018-08-09T01:41:59.984Z,15.60
2018-08-09T01:44:28.679Z,15.60
2018-08-09T01:46:58.481Z,15.60
2018-08-09T01:49:27.295Z,15.60
2018-08-09T01:51:56.089Z,15.60
2018-08-09T01:54:25.077Z,15.60
2018-08-09T01:56:53.914Z,15.60
2018-08-09T01:59:22.718Z,15.50
2018-08-09T02:01:51.577Z,15.50
2018-08-09T02:04:20.274Z,15.60
2018-08-09T02:06:49.117Z,15.60
2018-08-09T02:09:22.983Z,15.50
2018-08-09T02:11:51.488Z,15.50
2018-08-09T02:14:20.805Z,15.50
2018-08-09T02:16:49.973Z,15.40
2018-08-09T02:19:18.499Z,15.40
2018-08-09T02:21:47.063Z,15.40
2018-08-09T02:24:15.608Z,15.30
2018-08-09T02:26:44.144Z,15.30
2018-08-09T02:29:12.765Z,15.30
2018-08-09T02:31:41.432Z,15.30
2018-08-09T02:47:39.707Z,15.40
2018-08-09T02:50:08.334Z,15.30
2018-08-09T02:52:37.046Z,15.30
2018-08-09T02:55:05.870Z,15.30
2018-08-09T02:57:34.830Z,15.20
2018-08-09T03:00:03.633Z,15.30
2018-08-09T03:02:34.052Z,15.30
2018-08-09T03:05:02.959Z,15.20
2018-08-09T03:07:31.822Z,15.30
2018-08-09T03:10:01.050Z,15.30
2018-08-09T03:12:30.255Z,15.20
2018-08-09T03:14:59.133Z,15.30
2018-08-09T03:17:28.747Z,15.30
2018-08-09T03:19:57.722Z,15.30
2018-08-09T03:22:28.622Z,15.30
2018-08-09T03:24:57.795Z,15.30
2018-08-09T03:27:28.458Z,15.30
2018-08-09T03:29:57.212Z,15.20
2018-08-09T03:32:26.342Z,15.20
2018-08-09T03:34:55.594Z,15.20
2018-08-09T03:37:25.358Z,15.30
2018-08-09T03:39:54.203Z,15.30
2018-08-09T03:42:24.139Z,15.30
2018-08-09T03:44:53.976Z,15.30
2018-08-09T03:47:22.645Z,15.30
2018-08-09T03:49:51.358Z,15.20
2018-08-09T03:52:20.035Z,15.30
2018-08-09T03:54:48.616Z,15.20
2018-08-09T03:57:18.144Z,15.20
2018-08-09T03:59:47.364Z,15.20
2018-08-09T04:02:16.300Z,15.20
2018-08-09T04:04:46.620Z,15.20
2018-08-09T04:07:16.010Z,15.10
2018-08-09T04:09:44.944Z,15.10
2018-08-09T04:12:13.735Z,15.10
2018-08-09T04:14:43.629Z,15.20
2018-08-09T04:17:18.742Z,15.20
2018-08-09T04:19:48.163Z,15.20
2018-08-09T04:22:16.733Z,15.20
2018-08-09T04:24:45.638Z,15.10
2018-08-09T04:27:14.225Z,15.10
2018-08-09T04:29:42.859Z,15.20
2018-08-09T04:32:11.417Z,15.20
2018-08-09T04:34:40.029Z,15.20
2018-08-09T04:37:08.887Z,15.30
2018-08-09T04:39:37.864Z,15.30
2018-08-09T04:42:06.740Z,15.20
2018-08-09T04:44:35.734Z,15.30
2018-08-09T04:47:04.386Z,15.30
2018-08-09T04:49:33.063Z,15.40
2018-08-09T04:52:01.741Z,15.40
2018-08-09T04:54:31.673Z,15.50
2018-08-09T04:57:00.635Z,15.50
2018-08-09T04:59:29.375Z,15.50
2018-08-09T05:01:58.235Z,15.60
2018-08-09T05:04:26.930Z,15.60
2018-08-09T05:06:57.081Z,15.60
2018-08-09T05:09:25.881Z,15.70
2018-08-09T05:11:56.701Z,15.80
2018-08-09T05:14:25.716Z,15.90
2018-08-09T05:16:54.554Z,15.90
2018-08-09T05:19:23.160Z,16.00
2018-08-09T05:21:51.730Z,16.10
2018-08-09T05:24:20.263Z,16.10
2018-08-09T05:26:48.757Z,16.20
2018-08-09T05:29:17.239Z,16.30
2018-08-09T05:31:45.819Z,16.40
2018-08-09T05:34:14.632Z,16.50
2018-08-09T05:36:43.121Z,16.60
2018-08-09T05:39:12.421Z,16.70
2018-08-09T05:41:42.166Z,16.70
2018-08-09T05:44:10.748Z,16.80
2018-08-09T05:46:39.708Z,16.90
2018-08-09T05:49:08.346Z,16.90
2018-08-09T05:51:37.205Z,16.90
2018-08-09T05:54:07.434Z,17.00
2018-08-09T05:56:35.959Z,17.00
2018-08-09T05:59:04.701Z,17.10
2018-08-09T06:01:34.457Z,17.10
2018-08-09T06:04:04.919Z,17.20
2018-08-09T06:06:34.627Z,17.30
2018-08-09T06:09:06.843Z,17.40
2018-08-09T06:11:36.343Z,17.50
2018-08-09T06:14:09.164Z,17.60
2018-08-09T06:16:46.823Z,17.70
2018-08-09T06:19:20.635Z,17.80
2018-08-09T06:21:58.200Z,18.00
2018-08-09T06:25:09.308Z,18.10
2018-08-09T06:27:44.316Z,18.20
2018-08-09T06:30:22.802Z,18.40
2018-08-09T06:33:11.125Z,18.50
2018-08-09T06:35:53.825Z,18.60
2018-08-09T06:38:31.836Z,18.60
2018-08-09T06:44:30.027Z,18.80
2018-08-09T06:47:13.831Z,19.00
2018-08-09T06:49:44.950Z,19.10
2018-08-09T06:52:14.347Z,19.20
2018-08-09T06:54:44.037Z,19.20
2018-08-09T06:57:16.304Z,19.30
2018-08-09T06:59:45.715Z,19.30
2018-08-09T07:02:15.959Z,19.30
2018-08-09T07:04:47.277Z,19.30
2018-08-09T07:07:16.303Z,19.30
2018-08-09T07:09:46.051Z,19.40
2018-08-09T07:12:16.025Z,19.40
2018-08-09T07:14:44.820Z,19.40
2018-08-09T07:17:13.604Z,19.50
2018-08-09T07:19:42.359Z,19.50
2018-08-09T07:22:11.822Z,19.50
2018-08-09T07:24:41.554Z,19.50
2018-08-09T07:27:10.148Z,19.50
2018-08-09T07:29:38.792Z,19.60
2018-08-09T07:32:07.600Z,19.70
2018-08-09T07:34:36.882Z,19.90
2018-08-09T07:37:06.973Z,20.10
2018-08-09T07:39:38.343Z,20.20
2018-08-09T07:42:14.583Z,20.30
2018-08-09T07:44:45.392Z,20.40
2018-08-09T07:47:20.905Z,20.30
2018-08-09T07:50:06.112Z,20.30
2018-08-09T07:52:39.536Z,20.20
2018-08-09T07:55:12.505Z,20.20
2018-08-09T07:57:42.781Z,20.30
2018-08-09T08:00:12.829Z,20.30
2018-08-09T08:02:44.507Z,20.40
2018-08-09T08:05:21.200Z,20.40
2018-08-09T08:07:50.236Z,20.40
2018-08-09T08:10:20.172Z,20.50
2018-08-09T08:12:52.220Z,20.60
2018-08-09T08:15:23.287Z,20.70
2018-08-09T08:20:38.100Z,20.80
2018-08-09T08:23:10.210Z,20.80
2018-08-09T08:25:48.788Z,20.80
2018-08-09T08:28:41.171Z,20.90
2018-08-09T08:31:15.369Z,21.10
2018-08-09T08:34:22.315Z,21.30
2018-08-09T08:37:12.897Z,21.60
2018-08-09T08:48:10.357Z,21.90
2018-08-09T08:57:01.033Z,22.70
2018-08-09T08:59:49.453Z,22.90
2018-08-09T09:03:15.669Z,23.10
2018-08-09T09:06:03.035Z,23.50
2018-08-09T09:11:47.736Z,23.80
2018-08-09T09:14:29.994Z,23.70
2018-08-09T09:17:06.433Z,23.50
2018-08-09T09:19:39.374Z,23.30
2018-08-09T09:22:12.662Z,23.20
2018-08-09T09:24:50.362Z,23.30
2018-08-09T09:27:44.331Z,23.30
2018-08-09T09:30:37.918Z,23.30
2018-08-09T09:33:17.881Z,23.60
2018-08-09T09:36:02.562Z,23.70
2018-08-09T09:38:57.540Z,23.60
2018-08-09T09:47:48.147Z,24.30
2018-08-09T09:50:41.361Z,24.10
2018-08-09T09:57:17.135Z,23.90
2018-08-09T10:05:43.694Z,24.20
2018-08-09T10:08:58.991Z,24.20
2018-08-09T10:11:42.567Z,24.10
2018-08-09T10:20:42.233Z,23.90
2018-08-09T10:23:53.824Z,23.90
2018-08-09T10:26:45.885Z,23.80
2018-08-09T10:43:27.710Z,23.90
2018-08-09T10:46:05.083Z,23.90
2018-08-09T10:48:48.257Z,23.80
2018-08-09T10:54:55.961Z,23.70
2018-08-09T10:57:47.892Z,23.60
2018-08-09T11:00:40.342Z,23.50
2018-08-09T11:08:06.857Z,23.30
2018-08-09T11:10:54.712Z,23.30
2018-08-09T11:36:38.494Z,23.10
2018-08-09T11:39:12.174Z,22.80
2018-08-09T11:42:19.891Z,22.90
2018-08-09T11:53:48.920Z,22.90
2018-08-09T11:56:33.939Z,22.70
2018-08-09T11:59:32.683Z,22.60
2018-08-09T12:43:01.619Z,22.30
2018-08-09T12:49:00.683Z,22.10
2018-08-09T12:55:12.759Z,22.00
2018-08-09T13:01:11.988Z,21.90
2018-08-09T13:07:26.351Z,21.70
2018-08-09T13:10:22.710Z,21.60
2018-08-09T13:16:20.390Z,21.40
2018-08-09T13:54:30.272Z,21.30
2018-08-09T13:57:01.359Z,21.30
2018-08-09T13:59:30.463Z,21.20
2018-08-09T14:02:00.812Z,21.10
2018-08-09T14:04:32.779Z,20.80
2018-08-09T14:07:01.817Z,20.60
2018-08-09T14:09:30.766Z,20.40
2018-08-09T14:12:01.380Z,20.20
2018-08-09T14:14:30.636Z,20.20
2018-08-09T14:17:02.257Z,19.90
2018-08-09T14:19:32.761Z,19.90
2018-08-09T14:22:04.065Z,20.00
2018-08-09T14:24:36.036Z,19.90
2018-08-09T14:27:06.168Z,20.00
2018-08-09T14:29:42.256Z,20.00
2018-08-09T14:32:20.220Z,19.90
2018-08-09T14:34:50.493Z,19.90
2018-08-09T14:37:30.630Z,19.90
2018-08-09T14:40:00.023Z,19.80
2018-08-09T14:42:29.717Z,19.60
2018-08-09T14:45:00.595Z,19.60
2018-08-09T14:47:38.266Z,19.50
2018-08-09T14:50:08.892Z,19.40
2018-08-09T14:52:39.361Z,19.40
2018-08-09T14:55:11.266Z,19.50
2018-08-09T14:57:56.171Z,19.50
2018-08-09T15:00:29.541Z,19.60
2018-08-09T15:03:01.171Z,19.50
2018-08-09T15:05:39.184Z,19.40
2018-08-09T15:08:09.066Z,19.30
2018-08-09T15:10:39.266Z,19.30
2018-08-09T15:13:20.360Z,19.30
2018-08-09T15:18:26.747Z,19.40
2018-08-09T15:20:57.139Z,19.40
2018-08-09T15:23:35.388Z,19.40
2018-08-09T15:26:08.084Z,19.30
2018-08-09T15:28:39.751Z,19.30
2018-08-09T15:31:11.731Z,19.20
2018-08-09T15:33:40.701Z,19.10
2018-08-09T15:36:10.642Z,19.20
2018-08-09T15:38:59.837Z,19.10
2018-08-09T15:41:29.488Z,19.20
2018-08-09T15:44:00.020Z,19.10
2018-08-09T15:46:31.780Z,19.00
2018-08-09T15:52:20.373Z,18.80
2018-08-09T15:54:54.533Z,18.70
2018-08-09T15:57:28.000Z,18.70
2018-08-09T15:59:57.527Z,18.80
2018-08-09T16:02:26.912Z,19.00
2018-08-09T16:04:55.616Z,19.10
2018-08-09T16:07:24.551Z,19.20
2018-08-09T16:09:54.619Z,19.10
2018-08-09T16:12:26.946Z,19.00
2018-08-09T16:14:55.928Z,19.00
2018-08-09T16:17:25.229Z,18.90
2018-08-09T16:19:54.065Z,18.80
2018-08-09T16:22:22.928Z,19.00
2018-08-09T16:24:52.835Z,19.00
2018-08-09T16:27:21.787Z,19.00
2018-08-09T16:29:50.689Z,19.00
2018-08-09T16:32:19.571Z,19.00
2018-08-09T16:34:54.121Z,19.00
2018-08-09T16:37:30.059Z,19.00
2018-08-09T16:39:59.243Z,19.10
2018-08-09T16:42:28.185Z,19.10
2018-08-09T16:44:57.885Z,19.20
2018-08-09T16:47:32.580Z,19.20
2018-08-09T16:50:31.674Z,19.20
2018-08-09T16:53:01.497Z,19.20
2018-08-09T16:55:30.894Z,19.10
2018-08-09T16:58:07.893Z,19.20
2018-08-09T17:00:37.839Z,19.20
2018-08-09T17:03:15.497Z,19.20
2018-08-09T17:05:45.058Z,19.20
2018-08-09T17:08:33.300Z,19.30
2018-08-09T17:11:02.916Z,19.10
2018-08-09T17:13:34.116Z,19.10
2018-08-09T17:16:04.393Z,19.00
2018-08-09T17:18:33.366Z,19.10
2018-08-09T17:21:05.261Z,19.20
2018-08-09T17:23:37.978Z,19.10
2018-08-09T17:26:14.309Z,19.20
2018-08-09T17:28:45.667Z,19.10
2018-08-09T17:31:28.454Z,19.10
2018-08-09T17:34:03.305Z,19.20
2018-08-09T17:36:41.497Z,19.20
2018-08-09T17:39:44.113Z,19.30
2018-08-09T17:42:13.414Z,19.20
2018-08-09T17:44:43.046Z,19.20
2018-08-09T17:47:12.300Z,19.20
2018-08-09T18:39:20.854Z,19.20
2018-08-09T18:41:52.076Z,19.40
2018-08-09T18:44:50.276Z,19.30
2018-08-09T18:47:35.927Z,19.20
2018-08-09T18:50:13.888Z,19.20
2018-08-09T18:52:50.580Z,19.20
2018-08-09T18:55:23.935Z,19.30
2018-08-09T18:58:16.892Z,19.20
2018-08-09T19:00:47.333Z,19.30
2018-08-09T19:07:04.320Z,19.30
2018-08-09T19:09:41.228Z,19.40
2018-08-09T19:12:13.043Z,19.40
2018-08-09T19:14:45.337Z,19.40
2018-08-09T19:17:21.238Z,19.50
2018-08-09T19:19:54.476Z,19.30
2018-08-09T19:22:28.009Z,19.20
2018-08-09T19:25:00.333Z,18.90
2018-08-09T19:27:30.040Z,18.40
2018-08-09T19:30:24.953Z,17.80
2018-08-09T19:32:57.811Z,17.40
2018-08-09T19:35:32.355Z,17.10
2018-08-09T19:38:05.112Z,16.80
2018-08-09T19:40:42.735Z,16.70
2018-08-09T19:43:24.224Z,16.80
2018-08-09T19:45:59.591Z,16.70
2018-08-09T19:48:33.168Z,16.70
2018-08-09T19:51:27.529Z,16.70
2018-08-09T19:54:15.254Z,16.70
2018-08-09T19:56:58.104Z,16.60
2018-08-09T19:59:48.119Z,16.50
2018-08-09T20:02:43.602Z,16.50
2018-08-09T20:05:39.757Z,16.50
2018-08-09T20:12:48.129Z,16.60
2018-08-09T20:15:46.037Z,16.60
2018-08-09T20:30:01.458Z,16.50
2018-08-09T20:33:19.678Z,16.40
2018-08-09T20:36:18.210Z,16.50
2018-08-09T20:42:18.883Z,16.50
2018-08-09T20:44:59.198Z,16.50
2018-08-09T20:51:06.755Z,16.60
2018-08-09T20:53:57.658Z,16.60
2018-08-09T20:56:37.646Z,16.60
2018-08-09T20:59:29.501Z,16.60
2018-08-09T21:02:22.596Z,16.70
2018-08-09T21:08:00.073Z,16.60
2018-08-09T21:10:56.958Z,16.70
2018-08-09T21:19:21.167Z,16.80
2018-08-09T21:21:57.277Z,16.70
2018-08-09T21:24:27.713Z,16.70
2018-08-09T21:27:06.651Z,16.80
2018-08-09T21:29:51.708Z,16.80
2018-08-09T21:32:39.016Z,16.80
2018-08-09T21:35:16.597Z,16.70
2018-08-09T21:37:58.568Z,16.60
2018-08-09T21:40:48.937Z,16.60
2018-08-09T21:43:33.997Z,16.60
2018-08-09T21:46:36.063Z,16.60
2018-08-09T21:49:31.261Z,16.70
2018-08-09T21:52:04.076Z,16.60
2018-08-09T21:54:47.408Z,16.60
2018-08-09T21:57:20.440Z,16.50
2018-08-09T22:00:11.584Z,16.40
2018-08-09T22:02:52.028Z,16.30
2018-08-09T22:05:30.800Z,16.30
2018-08-09T22:08:07.452Z,16.30
2018-08-09T22:11:13.434Z,16.30
2018-08-09T22:13:51.161Z,16.30
2018-08-09T22:17:04.011Z,16.30
2018-08-09T22:20:01.203Z,16.30
2018-08-09T22:22:37.035Z,16.40
2018-08-09T22:25:09.563Z,16.30
2018-08-09T22:27:46.285Z,16.40
2018-08-09T22:30:43.552Z,16.30
2018-08-09T22:33:26.077Z,16.30
2018-08-09T22:35:57.179Z,16.30
2018-08-09T22:38:37.143Z,16.20
2018-08-09T22:41:11.178Z,16.20
2018-08-09T22:43:43.181Z,16.10
2018-08-09T22:52:41.606Z,16.00
2018-08-09T22:55:30.061Z,16.00
2018-08-09T22:58:18.179Z,16.00
2018-08-09T23:01:01.570Z,16.00
2018-08-09T23:03:53.799Z,16.00
2018-08-09T23:06:40.238Z,15.90
2018-08-09T23:09:38.247Z,15.90
2018-08-09T23:41:16.473Z,15.90
2018-08-09T23:43:54.482Z,15.80
2018-08-09T23:46:52.128Z,15.80
2018-08-09T23:55:59.428Z,15.70
2018-08-09T23:58:31.440Z,15.70
